Time;durP1;ratioP1;P1;durP2;ratioP2;P2;SDS_P1;SDS_P2;PMS_P1;PMS_P2;Temp;Humidity;BMP_temperature;BMP_pressure;BME280_temperature;BME280_humidity;BME280_pressure;Samples;Min_cycle;Max_cycle;Signal;HPM_P1;HPM_P2
2022/02/23 00:01:45;;;;;;;12.52;3.85;;;;;;;;;;5032583;28;20029;-93
2022/02/23 00:04:11;;;;;;;12.82;4.05;;;;;;;;;;5032901;28;20121;-95
2022/02/23 00:06:37;;;;;;;8.25;4.30;;;;;;;;;;5014988;28;20498;-93
2022/02/23 00:09:04;;;;;;;6.50;3.25;;;;;;;;;;5031836;28;20064;-94
2022/02/23 00:11:30;;;;;;;14.07;4.33;;;;;;;;;;5014953;28;20021;-94
2022/02/23 00:13:56;;;;;;;11.25;3.03;;;;;;;;;;5032319;28;20037;-94
2022/02/23 00:16:22;;;;;;;4.50;3.08;;;;;;;;;;5031631;28;20125;-94
2022/02/23 00:18:49;;;;;;;6.03;3.10;;;;;;;;;;5030738;28;20053;-95
2022/02/23 00:21:15;;;;;;;8.15;4.13;;;;;;;;;;5030790;28;20032;-93
2022/02/23 00:23:41;;;;;;;8.82;2.75;;;;;;;;;;5033214;28;20112;-94
2022/02/23 00:26:07;;;;;;;11.25;3.97;;;;;;;;;;5017772;28;20080;-93
2022/02/23 00:28:33;;;;;;;18.27;4.78;;;;;;;;;;5034692;28;20030;-96
2022/02/23 00:30:59;;;;;;;9.48;3.58;;;;;;;;;;5023491;28;20050;-95
2022/02/23 00:33:25;;;;;;;6.43;3.28;;;;;;;;;;5005288;28;20036;-93
2022/02/23 00:35:51;;;;;;;3.15;1.92;;;;;;;;;;5035234;28;20032;-95
2022/02/23 00:38:17;;;;;;;4.18;2.22;;;;;;;;;;5035309;28;20033;-93
2022/02/23 00:40:43;;;;;;;6.70;2.92;;;;;;;;;;5033533;28;20029;-94
2022/02/23 00:43:09;;;;;;;6.10;2.15;;;;;;;;;;5035500;28;20021;-95
2022/02/23 00:45:35;;;;;;;10.30;3.95;;;;;;;;;;5033586;28;20037;-94
2022/02/23 00:48:01;;;;;;;15.32;5.57;;;;;;;;;;5018031;28;20116;-94
2022/02/23 00:50:27;;;;;;;12.07;5.10;;;;;;;;;;5035237;28;20053;-93
2022/02/23 00:52:53;;;;;;;11.40;3.92;;;;;;;;;;5034211;28;20034;-95
2022/02/23 00:55:19;;;;;;;10.55;5.65;;;;;;;;;;5034572;28;20025;-93
2022/02/23 00:57:45;;;;;;;15.82;6.13;;;;;;;;;;5034669;28;20453;-95
2022/02/23 01:00:12;;;;;;;14.45;4.43;;;;;;;;;;5029481;28;20037;-93
2022/02/23 01:02:39;;;;;;;8.80;3.25;;;;;;;;;;5034455;28;20498;-92
2022/02/23 01:05:05;;;;;;;10.50;4.13;;;;;;;;;;5015542;28;20040;-94
2022/02/23 01:07:31;;;;;;;12.65;4.38;;;;;;;;;;5030147;28;20052;-94
2022/02/23 01:09:57;;;;;;;7.65;3.38;;;;;;;;;;5016997;28;20128;-94
2022/02/23 01:12:23;;;;;;;9.77;2.90;;;;;;;;;;5034702;28;20038;-94
2022/02/23 01:14:50;;;;;;;13.23;3.60;;;;;;;;;;5016582;28;20134;-94
2022/02/23 01:17:16;;;;;;;13.55;4.28;;;;;;;;;;5034504;28;20025;-95
2022/02/23 01:19:42;;;;;;;8.57;3.97;;;;;;;;;;5033959;28;20112;-93
2022/02/23 01:22:08;;;;;;;6.20;3.35;;;;;;;;;;5033575;28;20022;-93
2022/02/23 01:24:34;;;;;;;7.70;3.45;;;;;;;;;;5033789;28;20643;-93
2022/02/23 01:27:00;;;;;;;6.45;2.80;;;;;;;;;;5033709;28;20029;-94
2022/02/23 01:29:26;;;;;;;14.75;3.53;;;;;;;;;;5017010;28;20025;-94
2022/02/23 01:31:52;;;;;;;9.25;3.70;;;;;;;;;;5033441;28;20055;-93
2022/02/23 01:34:18;;;;;;;11.00;3.65;;;;;;;;;;5032431;28;20132;-94
2022/02/23 01:36:44;;;;;;;10.88;2.67;;;;;;;;;;5012355;28;20080;-94
2022/02/23 01:39:10;;;;;;;17.98;4.10;;;;;;;;;;5002185;28;20040;-94
2022/02/23 01:41:36;;;;;;;11.50;3.80;;;;;;;;;;5016586;28;20467;-95
2022/02/23 01:44:02;;;;;;;8.70;4.10;;;;;;;;;;5014707;28;20116;-94
2022/02/23 01:46:30;;;;;;;9.95;4.30;;;;;;;;;;5028831;28;20023;-94
2022/02/23 01:48:55;;;;;;;;;;;9.60;95.80;;;;;;5034265;28;20112;-93
2022/02/23 01:51:21;;;;;;;8.65;3.28;;;;;;;;;;5016360;28;19940;-92
2022/02/23 01:53:47;;;;;;;8.70;2.92;;;;;;;;;;5030449;28;20133;-95
2022/02/23 01:56:13;;;;;;;12.38;4.53;;;;;;;;;;5031912;28;20072;-94
2022/02/23 01:58:39;;;;;;;8.82;3.88;;;;;;;;;;5033652;28;20054;-93
2022/02/23 02:01:05;;;;;;;9.13;2.47;;;;;;;;;;5015805;28;20068;-94
2022/02/23 02:03:31;;;;;;;5.82;2.63;;;;;;;;;;5033864;28;20029;-94
2022/02/23 02:05:57;;;;;;;7.45;2.83;;;;;;;;;;5033655;28;20021;-94
2022/02/23 02:08:23;;;;;;;9.55;3.22;;;;;;;;;;5033850;28;20494;-94
2022/02/23 02:10:49;;;;;;;2.65;1.83;;;;;;;;;;5020586;28;20041;-94
2022/02/23 02:13:15;;;;;;;7.15;3.47;;;;;;;;;;5012405;28;20100;-95
2022/02/23 02:15:42;;;;;;;17.63;3.58;;;;;;;;;;5021704;28;20021;-93
2022/02/23 02:18:08;;;;;;;5.78;2.83;;;;;;;;;;5033098;28;20052;-95
2022/02/23 02:20:34;;;;;;;3.92;2.28;;;;;;;;;;5033319;28;20018;-93
2022/02/23 02:23:00;;;;;;;13.98;3.90;;;;;;;;;;5016242;28;20032;-94
2022/02/23 02:25:26;;;;;;;4.90;2.40;;;;;;;;;;5000546;28;20025;-94
2022/02/23 02:27:52;;;;;;;19.65;3.42;;;;;;;;;;5024160;28;20030;-93
2022/02/23 02:30:18;;;;;;;5.85;3.13;;;;;;;;;;5009638;28;20049;-94
2022/02/23 02:32:44;;;;;;;5.20;2.75;;;;;;;;;;5013969;28;20045;-94
2022/02/23 02:35:12;;;;;;;9.27;3.47;;;;;;;;;;5032392;28;20021;-94
2022/02/23 02:37:38;;;;;;;5.35;3.30;;;;;;;;;;5032634;28;20040;-93
2022/02/23 02:40:04;;;;;;;21.48;3.67;;;;;;;;;;5019300;28;20038;-93
2022/02/23 02:42:30;;;;;;;9.02;3.78;;;;;;;;;;4995805;28;20030;-93
2022/02/23 02:44:56;;;;;;;7.93;3.10;;;;;;;;;;5014342;28;20044;-94
2022/02/23 02:47:23;;;;;;;10.75;3.30;;;;;;;;;;5015356;28;20452;-93
2022/02/23 02:49:49;;;;;;;4.40;2.38;;;;;;;;;;5014825;28;20033;-94
2022/02/23 02:52:15;;;;;;;7.68;3.22;;;;;;;;;;5018373;28;20026;-94
2022/02/23 02:54:41;;;;;;;7.82;3.35;;;;;;;;;;5022358;28;20053;-94
2022/02/23 02:57:07;;;;;;;13.43;2.92;;;;;;;;;;5032568;28;20099;-93
2022/02/23 02:59:33;;;;;;;18.85;3.60;;;;;;;;;;5015026;28;20552;-93
2022/02/23 03:01:59;;;;;;;8.10;2.65;;;;;;;;;;4997432;28;20116;-94
2022/02/23 03:04:25;;;;;;;10.77;2.95;;;;;;;;;;5007897;28;20827;-95
2022/02/23 03:06:51;;;;;;;14.23;3.42;;;;;;;;;;5022071;28;20061;-94
2022/02/23 03:09:18;;;;;;;7.95;2.85;;;;;;;;;;5032270;28;20048;-93
2022/02/23 03:11:44;;;;;;;5.00;1.60;;;;;;;;;;5032523;28;20035;-94
2022/02/23 03:14:10;;;;;;;25.02;6.20;;;;;;;;;;5032137;28;20075;-94
2022/02/23 03:16:36;;;;;;;6.57;3.00;;;;;;;;;;5032335;28;20025;-92
2022/02/23 03:19:02;;;;;;;8.95;2.45;;;;;;;;;;5030015;28;20084;-93
2022/02/23 03:21:28;;;;;;;5.78;3.83;;;;;;;;;;5030536;28;20094;-95
2022/02/23 03:23:54;;;;;;;10.82;3.45;;;;;;;;;;5012194;28;20486;-94
2022/02/23 03:26:20;;;;;;;4.43;3.28;;;;;;;;;;5012636;28;20030;-93
2022/02/23 03:28:46;;;;;;;5.40;3.10;;;;;;;;;;5030748;28;20030;-94
2022/02/23 03:31:12;;;;;;;14.60;5.45;;;;;;;;;;5031572;28;20081;-92
2022/02/23 03:33:45;;;;;;;9.13;4.95;;;;;;;;;;5031293;28;20114;-94
2022/02/23 03:36:12;;;;;;;11.93;2.83;;;;;;;;;;5032524;28;20082;-94
2022/02/23 03:38:39;;;;;;;6.20;2.67;;;;;;;;;;5031995;28;20026;-95
2022/02/23 03:41:05;;;;;;;8.95;4.20;;;;;;;;;;5032075;28;20026;-93
2022/02/23 03:43:31;;;;;;;6.38;4.15;;;;;;;;;;5031978;28;20111;-93
2022/02/23 03:45:57;;;;;;;3.85;1.90;;;;;;;;;;5014176;28;20029;-94
2022/02/23 03:48:23;;;;;;;6.07;2.47;;;;;;;;;;5031855;28;20531;-94
2022/02/23 03:50:49;;;;;;;12.27;3.88;;;;;;;;;;5012232;28;20018;-92
2022/02/23 03:53:15;;;;;;;7.85;2.10;;;;;;;;;;5011233;28;20034;-94
2022/02/23 03:55:42;;;;;;;18.60;2.60;;;;;;;;;;5030105;28;20445;-94
2022/02/23 03:58:09;;;;;;;4.67;1.60;;;;;;;;;;5030615;28;20022;-93
2022/02/23 04:00:35;;;;;;;7.32;2.00;;;;;;;;;;5036243;28;20080;-95
2022/02/23 04:03:01;;;;;;;13.02;2.08;;;;;;;;;;5006751;28;20643;-93
2022/02/23 04:05:27;;;;;;;7.60;3.05;;;;;;;;;;5036180;28;20394;-93
2022/02/23 04:07:53;;;;;;;7.38;3.00;;;;;;;;;;5016789;28;20029;-94
2022/02/23 04:10:20;;;;;;;4.18;2.42;;;;;;;;;;5018244;28;20072;-94
2022/02/23 04:12:47;;;;;;;5.20;2.22;;;;;;;;;;5035123;28;20825;-94
2022/02/23 04:15:16;;;;;;;5.15;1.70;;;;;;;;;;5036030;28;20037;-94
2022/02/23 04:17:42;;;;;;;6.00;1.52;;;;;;;;;;5035871;28;20374;-93
2022/02/23 04:20:08;;;;;;;15.27;1.98;;;;;;;;;;5016499;28;20038;-93
2022/02/23 04:22:35;;;;;;;12.73;3.88;;;;;;;;;;5031679;28;20120;-94
2022/02/23 04:25:01;;;;;;;18.75;3.63;;;;;;;;;;5035237;28;20099;-93
2022/02/23 04:27:27;;;;;;;7.35;4.18;;;;;;;;;;5028342;28;20415;-94
2022/02/23 04:29:53;;;;;;;10.30;3.70;;;;;;;;;;4999205;28;20243;-94
2022/02/23 04:32:19;;;;;;;4.93;3.40;;;;;;;;;;5011404;28;20502;-94
2022/02/23 04:34:46;;;;;;;8.88;4.07;;;;;;;;;;5033495;28;20033;-93
2022/02/23 04:37:12;;;;;;;17.85;3.55;;;;;;;;;;5034586;28;20021;-93
2022/02/23 04:39:38;;;;;;;10.98;3.88;;;;;;;;;;5032656;28;20394;-93
2022/02/23 04:42:08;;;;;;;5.20;3.05;;;;;;;;;;5032253;28;20022;-93
2022/02/23 04:44:34;;;;;;;13.88;4.20;;;;;;;;;;5031203;28;20716;-94
2022/02/23 04:47:00;;;;;;;8.73;3.35;;;;;;;;;;5016689;28;20509;-94
2022/02/23 04:49:26;;;;;;;10.00;2.88;;;;;;;;;;5033162;28;20164;-94
2022/02/23 04:51:52;;;;;;;7.05;3.95;;;;;;;;;;5033509;28;20021;-95
2022/02/23 04:54:18;;;;;;;10.15;3.08;;;;;;;;;;5033169;28;20077;-93
2022/02/23 04:56:46;;;;;;;5.75;1.85;;;;;;;;;;5033562;28;20761;-94
2022/02/23 04:59:12;;;;;;;4.32;3.85;;;;;;;;;;5034924;28;20032;-93
2022/02/23 05:01:38;;;;;;;4.32;2.35;;;;;;;;;;5020462;28;20025;-94
2022/02/23 05:04:04;;;;;;;9.75;2.25;;;;;;;;;;5016886;28;20124;-94
2022/02/23 05:06:30;;;;;;;12.32;3.00;;;;;;;;;;5017225;28;20196;-93
2022/02/23 05:08:56;;;;;;;5.57;2.58;;;;;;;;;;5034960;28;20151;-93
2022/02/23 05:11:22;;;;;;;7.97;2.80;;;;;;;;;;5016861;28;20033;-93
2022/02/23 05:13:48;;;;;;;6.30;3.53;;;;;;;;;;5017234;28;20128;-95
2022/02/23 05:16:14;;;;;;;10.13;3.55;;;;;;;;;;5016979;28;20021;-93
2022/02/23 05:18:40;;;;;;;7.40;3.63;;;;;;;;;;5034699;28;20125;-93
2022/02/23 05:21:06;;;;;;;12.93;3.60;;;;;;;;;;5030953;28;20029;-93
2022/02/23 05:23:32;;;;;;;5.43;2.90;;;;;;;;;;4997175;28;20029;-94
2022/02/23 05:26:00;;;;;;;5.10;2.75;;;;;;;;;;5034008;28;20034;-92
2022/02/23 05:28:26;;;;;;;14.18;3.70;;;;;;;;;;5019148;28;20034;-94
2022/02/23 05:30:52;;;;;;;13.77;3.42;;;;;;;;;;5025228;28;20055;-93
2022/02/23 05:33:19;;;;;;;17.70;3.53;;;;;;;;;;5030662;28;20026;-94
2022/02/23 05:35:45;;;;;;;8.63;3.42;;;;;;;;;;4998573;28;20030;-94
2022/02/23 05:38:11;;;;;;;6.75;2.72;;;;;;;;;;5033439;28;20174;-93
2022/02/23 05:40:37;;;;;;;5.47;2.58;;;;;;;;;;5019129;28;20022;-94
2022/02/23 05:43:03;;;;;;;3.70;1.85;;;;;;;;;;5026469;28;20478;-94
2022/02/23 05:45:29;;;;;;;6.82;2.35;;;;;;;;;;5016191;28;20020;-93
2022/02/23 05:47:55;;;;;;;5.18;2.10;;;;;;;;;;5033988;28;20118;-94
2022/02/23 05:50:21;;;;;;;3.53;2.22;;;;;;;;;;5033106;28;20032;-93
2022/02/23 05:52:47;;;;;;;4.82;1.67;;;;;;;;;;5024749;28;20406;-93
2022/02/23 05:55:13;;;;;;;6.68;3.78;;;;;;;;;;5033888;28;20033;-94
2022/02/23 05:57:39;;;;;;;5.68;1.55;;;;;;;;;;5033979;28;20021;-93
2022/02/23 06:00:06;;;;;;;3.60;2.22;;;;;;;;;;5032513;28;20032;-93
2022/02/23 06:02:32;;;;;;;2.50;1.45;;;;;;;;;;5033924;28;20056;-94
2022/02/23 06:04:58;;;;;;;6.05;1.98;;;;;;;;;;5033055;28;20125;-95
2022/02/23 06:07:24;;;;;;;7.10;1.88;;;;;;;;;;5006590;28;20038;-95
2022/02/23 06:09:50;;;;;;;1.83;1.17;;;;;;;;;;5011666;28;20032;-93
2022/02/23 06:12:16;;;;;;;6.07;2.35;;;;;;;;;;5026091;28;20038;-94
2022/02/23 06:14:42;;;;;;;10.10;3.00;;;;;;;;;;5012681;28;20018;-94
2022/02/23 06:17:08;;;;;;;5.13;2.58;;;;;;;;;;5025014;28;20033;-95
2022/02/23 06:19:34;;;;;;;4.25;1.73;;;;;;;;;;5001638;28;20026;-95
2022/02/23 06:22:00;;;;;;;3.47;2.42;;;;;;;;;;5015074;28;20037;-94
2022/02/23 06:24:26;;;;;;;7.20;2.97;;;;;;;;;;5003656;28;20040;-95
2022/02/23 06:26:52;;;;;;;10.27;3.85;;;;;;;;;;5029669;28;20405;-94
2022/02/23 06:29:18;;;;;;;7.63;3.00;;;;;;;;;;5012264;28;20029;-95
2022/02/23 06:31:57;;;;;;;7.60;2.78;;;;;;;;;;5027208;28;20041;-90
2022/02/23 06:34:23;;;;;;;5.38;3.53;;;;;;;;;;5006833;28;20034;-88
2022/02/23 06:36:49;;;;;;;9.73;2.83;;;;;;;;;;5025808;28;20037;-90
2022/02/23 06:39:16;;;;;;;11.13;2.88;;;;;;;;;;5027465;28;20025;-92
2022/02/23 06:41:43;;;;;;;8.23;2.90;;;;;;;;;;5028672;28;20047;-92
2022/02/23 06:44:09;;;;;;;5.47;2.37;;;;;;;;;;5030732;28;20038;-92
2022/02/23 06:46:36;;;;;;;3.95;2.25;;;;;;;;;;5010368;28;20034;-94
2022/02/23 06:49:02;;;;;;;5.20;2.85;;;;;;;;;;5007839;28;20057;-92
2022/02/23 06:51:28;;;;;;;7.03;3.03;;;;;;;;;;5021569;28;20557;-92
2022/02/23 06:53:54;;;;;;;4.85;2.47;;;;;;;;;;5010307;28;20076;-92
2022/02/23 06:56:20;;;;;;;10.57;2.83;;;;;;;;;;5028939;28;20134;-91
2022/02/23 06:58:47;;;;;;;7.30;2.28;;;;;;;;;;5031127;28;20029;-91
2022/02/23 07:01:16;;;;;;;6.13;2.28;;;;;;;;;;5029038;28;20084;-92
2022/02/23 07:03:42;;;;;;;11.23;4.95;;;;;;;;;;5004533;28;20029;-93
2022/02/23 07:06:08;;;;;;;4.25;2.13;;;;;;;;;;5018439;28;20108;-87
2022/02/23 07:08:34;;;;;;;6.90;2.70;;;;;;;;;;5025802;28;20021;-91
2022/02/23 07:11:00;;;;;;;11.13;3.15;;;;;;;;;;5009265;28;20402;-91
2022/02/23 07:13:26;;;;;;;6.53;2.20;;;;;;;;;;5010874;28;20533;-91
2022/02/23 07:15:52;;;;;;;10.38;3.25;;;;;;;;;;5026958;28;20449;-89
2022/02/23 07:18:18;;;;;;;5.68;2.05;;;;;;;;;;5018927;28;20100;-90
2022/02/23 07:20:44;;;;;;;7.88;2.95;;;;;;;;;;5010442;28;20029;-89
2022/02/23 07:23:10;;;;;;;4.75;2.83;;;;;;;;;;5031057;28;20537;-90
2022/02/23 07:25:36;;;;;;;6.20;4.25;;;;;;;;;;5004544;28;20033;-90
2022/02/23 07:28:03;;;;;;;14.77;4.10;;;;;;;;;;5026504;28;20026;-89
2022/02/23 07:30:29;;;;;;;7.20;3.40;;;;;;;;;;5026921;28;20410;-91
2022/02/23 07:32:56;;;;;;;4.47;3.10;;;;;;;;;;5013536;28;20292;-91
2022/02/23 07:35:22;;;;;;;7.18;2.58;;;;;;;;;;5012812;28;20056;-88
2022/02/23 07:37:50;;;;;;;2.88;2.47;;;;;;;;;;5029978;28;20049;-90
2022/02/23 07:40:23;;;;;;;4.95;2.08;;;10.40;97.10;;;;;;5029865;28;20021;-90
2022/02/23 07:42:50;;;;;;;5.75;2.15;;;;;;;;;;5031153;28;20022;-88
2022/02/23 07:45:16;;;;;;;9.73;3.13;;;;;;;;;;5029899;28;20155;-87
2022/02/23 07:47:43;;;;;;;7.07;3.15;;;;;;;;;;5030015;28;20053;-88
2022/02/23 07:50:12;;;;;;;15.70;4.32;;;;;;;;;;5029134;28;20516;-87
2022/02/23 07:52:38;;;;;;;5.07;3.00;;;10.10;97.50;;;;;;5030365;28;20038;-90
2022/02/23 07:55:05;;;;;;;15.95;5.95;;;;;;;;;;5026729;28;20030;-90
2022/02/23 07:57:32;;;;;;;12.68;4.45;;;;;;;;;;5016267;28;20028;-90
2022/02/23 07:59:58;;;;;;;9.23;3.35;;;;;;;;;;5029084;28;20057;-91
2022/02/23 08:02:24;;;;;;;6.45;2.20;;;;;;;;;;5025682;28;20025;-89
2022/02/23 08:04:52;;;;;;;6.03;2.92;;;;;;;;;;5022077;28;20026;-91
2022/02/23 08:07:22;;;;;;;5.75;2.33;;;;;;;;;;5009462;28;20025;-91
2022/02/23 08:09:48;;;;;;;3.70;2.95;;;;;;;;;;5029784;28;20071;-92
2022/02/23 08:12:14;;;;;;;5.22;2.25;;;;;;;;;;5030175;28;20502;-92
2022/02/23 08:14:40;;;;;;;4.95;1.88;;;;;;;;;;5012940;28;20040;-92
2022/02/23 08:19:51;;;;;;;6.97;2.13;;;;;;;;;;5020651;28;20068;-93
2022/02/23 08:22:18;;;;;;;8.60;1.88;;;;;;;;;;5017692;28;20403;-93
2022/02/23 08:24:45;;;;;;;9.70;2.38;;;;;;;;;;5021694;28;20128;-93
2022/02/23 08:27:11;;;;;;;6.85;2.35;;;;;;;;;;5027793;28;20017;-92
2022/02/23 08:29:38;;;;;;;2.95;1.98;;;;;;;;;;5015249;28;20034;-96
2022/02/23 08:32:05;;;;;;;4.47;1.58;;;;;;;;;;5011754;28;20124;-89
2022/02/23 08:34:31;;;;;;;4.43;2.42;;;;;;;;;;5011904;28;20049;-90
2022/02/23 08:36:57;;;;;;;7.75;1.88;;;;;;;;;;5010613;28;20057;-89
2022/02/23 08:39:23;;;;;;;9.00;2.38;;;;;;;;;;5029498;28;20048;-90
2022/02/23 08:41:50;;;;;;;7.93;1.88;;;;;;;;;;5030345;28;20109;-93
2022/02/23 08:44:16;;;;;;;11.80;2.10;;;;;;;;;;5013493;28;20030;-89
2022/02/23 08:46:43;;;;;;;7.43;1.83;;;;;;;;;;5033228;28;20561;-91
2022/02/23 08:49:10;;;;;;;;;;;11.00;96.50;;;;;;5016881;28;20469;-92
2022/02/23 08:51:37;;;;;;;12.30;2.60;;;;;;;;;;5033952;28;20163;-90
2022/02/23 08:54:03;;;;;;;;;;;;;;;;;;5016473;28;20068;-91
2022/02/23 08:56:29;;;;;;;9.73;2.53;;;;;;;;;;5019397;28;19909;-91
2022/02/23 08:58:55;;;;;;;3.72;1.15;;;;;;;;;;5032197;28;20034;-95
2022/02/23 09:01:22;;;;;;;3.00;2.03;;;;;;;;;;5013150;28;20022;-88
2022/02/23 09:03:48;;;;;;;7.05;2.38;;;;;;;;;;5014963;28;20029;-88
2022/02/23 09:06:14;;;;;;;5.05;2.65;;;;;;;;;;5033179;28;20026;-88
2022/02/23 09:08:40;;;;;;;13.07;2.85;;;;;;;;;;5014608;28;20033;-89
2022/02/23 09:11:06;;;;;;;6.57;2.40;;;;;;;;;;5013273;28;20025;-89
2022/02/23 09:13:32;;;;;;;9.23;4.00;;;;;;;;;;5032552;28;20494;-90
2022/02/23 09:15:58;;;;;;;6.28;2.90;;;;;;;;;;5030135;28;20022;-89
2022/02/23 09:18:24;;;;;;;4.28;2.97;;;;;;;;;;5016594;28;20033;-89
2022/02/23 09:20:50;;;;;;;7.78;3.67;;;;;;;;;;5013291;28;20021;-88
2022/02/23 09:23:18;;;;;;;6.97;3.13;;;;;;;;;;5030546;28;20021;-91
2022/02/23 09:25:44;;;;;;;10.80;4.25;;;;;;;;;;5016040;28;20044;-89
2022/02/23 09:28:10;;;;;;;8.13;3.47;;;;;;;;;;5012558;28;20022;-88
2022/02/23 09:30:36;;;;;;;9.63;3.10;;;;;;;;;;5003330;28;20060;-89
2022/02/23 09:33:05;;;;;;;8.85;2.25;;;;;;;;;;5012278;28;20045;-92
2022/02/23 09:35:33;;;;;;;7.05;3.78;;;;;;;;;;5012920;28;20088;-94
2022/02/23 09:38:01;;;;;;;4.18;1.80;;;;;;;;;;5033060;28;20098;-94
2022/02/23 09:40:28;;;;;;;4.13;2.35;;;;;;;;;;5033583;28;20030;-92
2022/02/23 09:42:54;;;;;;;6.68;2.55;;;;;;;;;;5033079;28;20099;-94
2022/02/23 09:45:20;;;;;;;4.47;1.80;;;;;;;;;;5038685;28;20025;-94
2022/02/23 09:47:46;;;;;;;8.20;3.10;;;;;;;;;;5017161;28;20107;-95
2022/02/23 09:50:20;;;;;;;2.53;1.50;;;;;;;;;;5032403;28;20033;-92
2022/02/23 09:52:46;;;;;;;6.75;1.88;;;;;;;;;;5033393;28;20563;-93
2022/02/23 09:55:13;;;;;;;1.42;1.27;;;;;;;;;;5027491;28;20075;-93
2022/02/23 09:57:39;;;;;;;2.13;1.50;;;;;;;;;;5043913;28;20025;-92
2022/02/23 10:00:07;;;;;;;2.08;1.20;;;;;;;;;;5031863;28;20025;-93
2022/02/23 10:02:36;;;;;;;2.88;0.93;;;;;;;;;;5032810;28;20022;-94
2022/02/23 10:05:03;;;;;;;5.43;2.35;;;;;;;;;;5032614;28;20497;-92
2022/02/23 10:07:30;;;;;;;1.80;1.42;;;;;;;;;;5009647;28;20033;-95
2022/02/23 10:10:00;;;;;;;2.58;1.35;;;;;;;;;;5033538;28;20450;-94
2022/02/23 10:12:26;;;;;;;5.57;1.10;;;;;;;;;;5026405;28;20045;-93
2022/02/23 10:15:12;;;;;;;3.60;0.77;;;;;;;;;;5012844;28;20026;-93
2022/02/23 10:17:47;;;;;;;1.38;1.27;;;;;;;;;;5013476;28;20046;-94
2022/02/23 10:20:26;;;;;;;4.72;0.90;;;;;;;;;;5013003;28;20060;-89
2022/02/23 10:22:52;;;;;;;1.48;0.65;;;;;;;;;;5029799;28;20128;-89
2022/02/23 10:25:25;;;;;;;7.60;2.35;;;;;;;;;;5030740;28;20033;-89
2022/02/23 10:27:52;;;;;;;2.33;0.90;;;;;;;;;;5031382;28;20246;-89
2022/02/23 10:30:27;;;;;;;5.53;1.40;;;;;;;;;;5030459;28;20499;-89
2022/02/23 10:32:57;;;;;;;1.30;0.80;;;;;;;;;;5031932;28;20495;-92
2022/02/23 10:35:29;;;;;;;0.70;0.70;;;;;;;;;;5012169;28;20046;-89
2022/02/23 10:37:55;;;;;;;1.10;0.77;;;;;;;;;;5012139;28;20032;-95
2022/02/23 10:40:23;;;;;;;0.73;0.73;;;;;;;;;;5030849;28;20029;-88
2022/02/23 10:42:49;;;;;;;2.47;1.10;;;;;;;;;;5011853;28;20112;-87
2022/02/23 10:45:18;;;;;;;1.00;0.70;;;;;;;;;;5029603;28;20061;-92
2022/02/23 10:47:47;;;;;;;0.90;0.82;;;;;;;;;;4997122;28;20042;-90
2022/02/23 10:50:14;;;;;;;4.72;1.27;;;;;;;;;;4994257;28;20037;-89
2022/02/23 10:52:52;;;;;;;2.05;0.85;;;14.80;82.60;;;;;;5006411;28;20037;-88
2022/02/23 10:55:20;;;;;;;2.38;1.65;;;;;;;;;;5003395;28;20033;-87
2022/02/23 10:57:53;;;;;;;1.15;0.75;;;;;;;;;;5024496;28;20026;-89
2022/02/23 11:00:20;;;;;;;4.10;1.00;;;;;;;;;;5019965;28;20033;-87
2022/02/23 11:02:46;;;;;;;;;;;;;;;;;;5027888;28;20021;-90
2022/02/23 11:05:14;;;;;;;3.33;0.90;;;;;;;;;;5023164;28;19925;-89
2022/02/23 11:07:44;;;;;;;5.13;2.20;;;;;;;;;;5024360;28;20482;-89
2022/02/23 11:10:14;;;;;;;1.48;0.88;;;;;;;;;;5006212;28;20604;-88
2022/02/23 11:12:50;;;;;;;0.98;0.52;;;;;;;;;;5024376;28;20506;-88
2022/02/23 11:15:20;;;;;;;2.15;1.58;;;;;;;;;;5005218;28;20029;-92
2022/02/23 11:17:47;;;;;;;5.15;1.17;;;;;;;;;;5008999;28;20021;-92
2022/02/23 11:20:21;;;;;;;4.35;1.02;;;;;;;;;;5004249;28;20028;-92
2022/02/23 11:22:56;;;;;;;7.32;1.38;;;;;;;;;;5025950;28;20514;-91
2022/02/23 11:25:34;;;;;;;1.50;1.10;;;;;;;;;;5027530;28;20025;-91
2022/02/23 11:28:22;;;;;;;1.35;1.00;;;14.80;80.70;;;;;;5027985;28;20029;-91
2022/02/23 11:31:00;;;;;;;4.82;1.17;;;;;;;;;;5009588;28;20036;-90
2022/02/23 11:33:45;;;;;;;1.73;1.00;;;;;;;;;;5007819;28;20033;-92
2022/02/23 11:36:18;;;;;;;0.93;0.82;;;;;;;;;;5009364;28;20014;-92
2022/02/23 11:38:47;;;;;;;1.38;0.82;;;;;;;;;;5023883;28;20103;-91
2022/02/23 11:41:23;;;;;;;12.23;1.25;;;;;;;;;;5030886;28;20025;-90
2022/02/23 11:43:51;;;;;;;7.88;1.35;;;;;;;;;;5024994;28;20025;-91
2022/02/23 11:46:17;;;;;;;5.05;1.17;;;;;;;;;;5006023;28;20064;-92
2022/02/23 11:48:50;;;;;;;5.07;1.05;;;;;;;;;;5010160;28;20021;-89
2022/02/23 11:51:43;;;;;;;3.03;1.10;;;15.90;73.70;;;;;;5025708;28;20013;-88
2022/02/23 11:54:10;;;;;;;4.15;0.95;;;;;;;;;;5022697;28;20103;-87
2022/02/23 11:56:38;;;;;;;2.25;0.93;;;;;;;;;;5003333;28;20061;-89
2022/02/23 11:59:04;;;;;;;3.33;0.93;;;;;;;;;;5026621;28;20038;-92
2022/02/23 12:01:44;;;;;;;2.35;0.63;;;;;;;;;;5022170;28;20034;-92
2022/02/23 12:04:14;;;;;;;3.05;1.10;;;;;;;;;;5026124;28;20013;-90
2022/02/23 12:06:58;;;;;;;0.73;0.70;;;;;;;;;;5021812;28;20029;-90
2022/02/23 12:09:44;;;;;;;2.55;1.40;;;;;;;;;;5009913;28;20056;-90
2022/02/23 12:12:28;;;;;;;0.93;0.65;;;;;;;;;;5012343;28;20025;-91
2022/02/23 12:14:54;;;;;;;0.57;0.57;;;;;;;;;;5011459;28;20056;-94
2022/02/23 12:17:39;;;;;;;1.20;0.88;;;;;;;;;;5012227;28;20040;-93
2022/02/23 12:20:05;;;;;;;1.98;1.35;;;;;;;;;;5015901;28;20061;-93
2022/02/23 12:22:36;;;;;;;1.55;1.17;;;;;;;;;;5035546;28;20395;-94
2022/02/23 12:25:04;;;;;;;2.25;1.08;;;;;;;;;;5028706;28;20037;-93
2022/02/23 12:27:31;;;;;;;0.75;0.75;;;;;;;;;;5021837;28;20025;-89
2022/02/23 12:29:59;;;;;;;0.98;0.80;;;;;;;;;;5031820;28;20036;-88
2022/02/23 12:32:28;;;;;;;1.80;0.98;;;;;;;;;;5017384;28;20029;-87
2022/02/23 12:34:58;;;;;;;1.15;1.05;;;;;;;;;;5032856;28;20082;-88
2022/02/23 12:37:24;;;;;;;5.10;0.90;;;;;;;;;;5033183;28;20068;-88
2022/02/23 12:39:51;;;;;;;2.35;1.00;;;;;;;;;;5007702;28;20030;-88
2022/02/23 12:42:17;;;;;;;0.73;0.73;;;;;;;;;;5013303;28;20025;-88
2022/02/23 12:44:47;;;;;;;0.90;0.90;;;;;;;;;;5032644;28;20029;-88
2022/02/23 12:47:15;;;;;;;1.45;1.05;;;;;;;;;;4996434;28;20030;-93
2022/02/23 12:49:42;;;;;;;4.88;0.73;;;;;;;;;;5030336;28;20025;-90
2022/02/23 12:52:08;;;;;;;1.23;0.70;;;;;;;;;;5021812;28;20522;-89
2022/02/23 12:54:35;;;;;;;2.03;0.77;;;;;;;;;;5003772;28;20087;-89
2022/02/23 12:57:01;;;;;;;0.63;0.60;;;;;;;;;;5035054;28;20399;-91
2022/02/23 12:59:29;;;;;;;3.63;0.98;;;;;;;;;;5035235;28;20036;-91
2022/02/23 13:02:13;;;;;;;0.75;0.60;;;;;;;;;;5035140;28;20414;-90
2022/02/23 13:04:41;;;;;;;1.50;0.98;;;;;;;;;;5025562;28;20138;-85
2022/02/23 13:07:10;;;;;;;0.73;0.73;;;;;;;;;;5021894;28;20457;-86
2022/02/23 13:09:41;;;;;;;1.05;0.55;;;;;;;;;;5027719;28;20052;-85
2022/02/23 13:12:08;;;;;;;0.90;0.55;;;;;;;;;;5030053;28;20100;-86
2022/02/23 13:14:42;;;;;;;1.58;0.70;;;;;;;;;;5012264;28;20041;-86
2022/02/23 13:17:12;;;;;;;5.30;2.17;;;16.70;68.10;;;;;;5018263;28;20455;-86
2022/02/23 13:19:39;;;;;;;1.52;0.60;;;;;;;;;;5026897;28;20033;-88
2022/02/23 13:22:05;;;;;;;;;;;;;;;;;;5027965;28;20045;-85
2022/02/23 13:24:33;;;;;;;0.77;0.60;;;;;;;;;;5017227;28;19909;-84
2022/02/23 13:27:03;;;;;;;1.75;0.70;;;;;;;;;;5032378;28;20026;-94
2022/02/23 13:29:29;;;;;;;1.08;0.90;;;;;;;;;;5032780;28;20029;-94
2022/02/23 13:32:06;;;;;;;0.80;0.50;;;;;;;;;;5006779;28;20108;-96
2022/02/23 13:34:46;;;;;;;0.93;0.47;;;;;;;;;;5017153;28;20041;-96
2022/02/23 13:37:26;;;;;;;0.98;0.98;;;;;;;;;;5030815;28;20060;-96
2022/02/23 13:40:17;;;;;;;1.30;0.70;;;;;;;;;;4998021;28;20044;-96
2022/02/23 13:42:49;;;;;;;2.60;0.85;;;;;;;;;;5047309;28;20097;-96
2022/02/23 13:45:31;;;;;;;3.03;1.05;;;;;;;;;;5047548;28;20045;-96
2022/02/23 13:48:34;;;;;;;1.17;1.08;;;;;;;;;;4998599;28;20021;-96
2022/02/23 13:51:26;;;;;;;4.10;1.40;;;;;;;;;;4963380;29;20028;-93
2022/02/23 13:53:52;;;;;;;4.70;1.48;;;;;;;;;;4936425;29;20131;-91
2022/02/23 13:56:22;;;;;;;2.30;1.13;;;;;;;;;;4954459;29;20054;-91
2022/02/23 13:58:48;;;;;;;0.95;0.82;;;;;;;;;;4936473;29;20785;-92
2022/02/23 14:01:14;;;;;;;0.80;0.80;;;;;;;;;;4947065;29;20178;-90
2022/02/23 14:03:40;;;;;;;1.75;1.00;;;;;;;;;;4953329;29;20086;-93
2022/02/23 14:06:07;;;;;;;2.38;1.42;;;;;;;;;;4938112;29;20028;-91
2022/02/23 14:08:38;;;;;;;3.42;0.82;;;;;;;;;;4934910;29;20031;-90
2022/02/23 14:40:19;;;;;;;7.32;1.90;;;;;;;;;;5136514;23;20056;-90
2022/02/23 14:42:48;;;;;;;3.67;2.17;;;;;;;;;;5034989;28;20052;-94
2022/02/23 14:45:14;;;;;;;2.95;1.50;;;;;;;;;;5030017;28;20029;-95
2022/02/23 14:47:44;;;;;;;5.07;1.38;;;;;;;;;;5013601;28;20026;-95
2022/02/23 14:50:13;;;;;;;2.92;1.35;;;;;;;;;;5032765;28;20025;-96
2022/02/23 14:52:41;;;;;;;2.75;1.30;;;;;;;;;;5031846;28;20037;-95
2022/02/23 14:55:08;;;;;;;1.98;1.35;;;;;;;;;;5020721;28;20096;-94
2022/02/23 14:57:34;;;;;;;1.75;1.58;;;;;;;;;;5020428;28;20021;-95
2022/02/23 15:00:03;;;;;;;5.70;1.55;;;;;;;;;;5030532;28;20050;-96
2022/02/23 15:02:29;;;;;;;1.55;1.17;;;;;;;;;;5031810;28;20041;-96
2022/02/23 15:04:55;;;;;;;9.95;2.00;;;;;;;;;;5032528;28;20037;-96
2022/02/23 15:07:21;;;;;;;1.70;0.93;;;;;;;;;;5030470;28;20105;-89
2022/02/23 15:09:47;;;;;;;2.17;1.52;;;;;;;;;;5023393;28;20201;-91
2022/02/23 15:12:18;;;;;;;5.03;1.02;;;;;;;;;;5013711;28;20037;-89
2022/02/23 15:14:44;;;;;;;5.22;1.70;;;;;;;;;;5011593;28;20188;-89